Home > Products > Valid Products > TAF

000
FTUS44 KEPZ 012338
TAFELP
TAF
KELP 012338Z 0200/0224 VRB04KT P6SM FEW100
     FM020400 13006KT P6SM FEW080
     FM021800 35006KT P6SM SCT080 SCT130 BKN250=



000
FTUS44 KEPZ 012338
TAFTCS
TAF
KTCS 012338Z 0200/0224 17006KT P6SM SKC
     FM020300 27006KT P6SM FEW120
     FM021200 VRB04KT P6SM FEW120
     FM021700 23006KT P6SM SCT070 SCT120 BKN250=



000
FTUS44 KEPZ 012338
TAFDMN
TAF
KDMN 012338Z 0200/0224 20007KT P6SM FEW100
     FM020400 29006KT P6SM FEW080
     FM021800 26006KT P6SM SCT080 SCT130 BKN250=



000
FTUS44 KEPZ 011757
TAFTCS
TAF
KTCS 011757Z 0118/0218 17006KT P6SM SKC
     FM020300 27006KT P6SM FEW120
     FM021200 VRB04KT P6SM FEW120=



000
FTUS44 KEPZ 011757
TAFDMN
TAF
KDMN 011757Z 0118/0218 20007KT P6SM FEW100
     FM020400 29006KT P6SM FEW080=



000
FTUS44 KEPZ 011757
TAFELP
TAF
KELP 011757Z 0118/0218 VRB04KT P6SM FEW100
     FM020400 13006KT P6SM FEW080=



000
FTUS44 KEPZ 011757
TAFDMN
TAF
KDMN 011757Z 0118/0218 20007KT P6SM FEW100
     FM020400 29006KT P6SM FEW080=



000
FTUS44 KEPZ 011757
TAFTCS
TAF
KTCS 011757Z 0118/0218 17006KT P6SM SKC
     FM020300 27006KT P6SM FEW120
     FM021200 VRB04KT P6SM FEW120=



000
FTUS44 KEPZ 011757
TAFELP
TAF
KELP 011757Z 0118/0218 VRB04KT P6SM FEW100
     FM020400 13006KT P6SM FEW080=



000
FTUS44 KEPZ 011143
TAFDMN
TAF
KDMN 011143Z 0112/0212 VRB04KT P6SM FEW100 SCT150 BKN250
     FM011800 20007KT P6SM FEW080 FEW250
     FM020400 26009KT P6SM FEW140 SCT250=



000
FTUS44 KEPZ 011143
TAFELP
TAF
KELP 011143Z 0112/0212 12003KT P6SM FEW140 FEW250
     FM011800 20006KT P6SM FEW090 SCT140
     FM020600 24007KT P6SM FEW080 FEW140 SCT250=



000
FTUS44 KEPZ 011143
TAFTCS
TAF
KTCS 011143Z 0112/0212 32003KT P6SM FEW120 SCT250
     FM012100 16006KT P6SM SCT080 SCT130
     FM020600 28008KT P6SM FEW130=



000
FTUS44 KEPZ 011143
TAFDMN
TAF
KDMN 011143Z 0112/0212 VRB04KT P6SM FEW100 SCT150 BKN250
     FM011800 20007KT P6SM FEW080 FEW250
     FM020400 26009KT P6SM FEW140 SCT250=



000
FTUS44 KEPZ 011143
TAFTCS
TAF
KTCS 011143Z 0112/0212 32003KT P6SM FEW120 SCT250
     FM012100 16006KT P6SM SCT080 SCT130
     FM020600 28008KT P6SM FEW130=



000
FTUS44 KEPZ 011143
TAFELP
TAF
KELP 011143Z 0112/0212 12003KT P6SM FEW140 FEW250
     FM011800 20006KT P6SM FEW090 SCT140
     FM020600 24007KT P6SM FEW080 FEW140 SCT250=



000
FTUS44 KEPZ 010548
TAFELP
TAF
KELP 010548Z 0106/0206 17006KT P6SM FEW080 BKN250
     FM011800 15007KT P6SM SCT090 SCT140 BKN250
     FM020300 19007KT P6SM FEW080 FEW140 SCT250=



000
FTUS44 KEPZ 010548
TAFTCS
TAF
KTCS 010548Z 0106/0206 18006KT 2SM HZ FEW005 SCT250
     FM010800 18006KT P6SM FEW080 SCT250
     FM012100 16006KT P6SM SCT080 BKN130 BKN250
     FM020400 20006KT P6SM FEW130 SCT250=



000
FTUS44 KEPZ 010548
TAFDMN
TAF
KDMN 010548Z 0106/0206 18012G18KT P6SM FEW080 SCT250
     FM010800 15006KT P6SM FEW080 SCT250
     FM011800 20007KT P6SM FEW080 FEW250
     FM020400 26009KT P6SM FEW140 SCT250=



000
FTUS44 KEPZ 010042 AAA
TAFELP
TAF AMD
KELP 010042Z 0101/0124 17015G25KT P6SM SCT090 SCT140 SCT250
     FM010300 13009KT P6SM FEW090 FEW140 SCT250
     FM010600 08006KT P6SM FEW080 SCT250
     FM011800 15007KT P6SM SCT090 SCT140 BKN250=



000
FTUS44 KEPZ 010042 AAA
TAFELP
TAF AMD
KELP 010042Z 0101/0124 17015G25KT P6SM SCT090 SCT140 SCT250
     FM010300 13009KT P6SM FEW090 FEW140 SCT250
     FM010600 08006KT P6SM FEW080 SCT250
     FM011800 15007KT P6SM SCT090 SCT140 BKN250=



000
FTUS44 KEPZ 302333
TAFELP
TAF
KELP 302333Z 0100/0124 11010KT P6SM SCT090 SCT140 SCT250
     FM010600 08006KT P6SM FEW080 SCT250
     FM011800 15007KT P6SM SCT090 SCT140 BKN250=



000
FTUS44 KEPZ 302333
TAFTCS
TAF
KTCS 302333Z 0100/0124 07008KT P6SM SCT070 SCT140 SCT250
     FM010300 18006KT P6SM FEW080 SCT250
     FM010800 26006KT P6SM FEW080 SCT250
     FM012100 16006KT P6SM SCT080 BKN130 BKN250=



000
FTUS44 KEPZ 302333
TAFDMN
TAF
KDMN 302333Z 0100/0124 11010G16KT P6SM SCT070 SCT140 SCT250
     FM010600 07006KT P6SM FEW080 SCT250
     FM011800 20007KT P6SM FEW080 FEW250=



000
FTUS44 KEPZ 301727
TAFELP
TAF
KELP 301727Z 3018/0118 11010KT P6SM SCT070 SCT140 SCT250
     FM010600 08006KT P6SM FEW080 SCT250=



000
FTUS44 KEPZ 301727
TAFDMN
TAF
KDMN 301727Z 3018/0118 11010G16KT P6SM SCT070 SCT140 SCT250
     FM010600 07006KT P6SM FEW080 SCT250
     FM011700 20007KT P6SM FEW080 FEW250=



000
FTUS44 KEPZ 301727
TAFTCS
TAF
KTCS 301727Z 3018/0118 07008KT P6SM SCT070 SCT140 SCT250
     FM010300 18006KT P6SM FEW080 SCT250
     FM010800 26006KT P6SM FEW080 SCT250=



000
FTUS44 KEPZ 301125
TAFTCS
TAF
KTCS 301125Z 3012/0112 30007KT P6SM SCT080 BKN140
     FM301800 14010KT P6SM FEW070 SCT100
     FM010600 22006KT P6SM FEW110=



000
FTUS44 KEPZ 301125
TAFDMN
TAF
KDMN 301125Z 3012/0112 06006KT P6SM FEW080 SCT120 BKN180
     FM301800 12010KT P6SM FEW070 SCT140
     FM010600 08005KT P6SM SKC=



000
FTUS44 KEPZ 301125
TAFELP
TAF
KELP 301125Z 3012/0112 04006KT P6SM FEW120 FEW180 SCT240
     FM301900 11010KT P6SM FEW080 SCT150
     FM010600 12005KT P6SM SKC=



000
FTUS44 KEPZ 300546
TAFDMN
TAF
KDMN 300546Z 3006/0106 10009KT P6SM SCT070 BKN200
      TEMPO 3006/3008 -TSRA FEW030 BKN060CB
     FM300900 07008KT P6SM FEW060 BKN250
     FM301800 12010KT P6SM FEW070 SCT100 SCT250=



000
FTUS44 KEPZ 300546
TAFELP
TAF
KELP 300546Z 3006/0106 10015G25KT P6SM FEW070 BKN120
      TEMPO 3006/3008 -TSRA FEW030 BKN070CB
     FM300800 12008KT P6SM FEW070 BKN250
     FM301900 11010KT P6SM SCT080 SCT250=



000
FTUS44 KEPZ 300546
TAFTCS
TAF
KTCS 300546Z 3006/0106 10010KT P6SM VCSH SCT070 BKN120 BKN200
     FM300900 07007KT P6SM FEW070 SCT250
     FM301800 17010KT P6SM FEW070 SCT100=



000
FTUS44 KEPZ 300405 AAA
TAFELP
TAF AMD
KELP 300405Z 3004/3024 07011G21KT P6SM SCT070 BKN120 BKN250
     FM300600 10010KT P6SM FEW070 SCT100 BKN250
     FM301000 13008KT P6SM SCT100 BKN250
     FM301600 17005KT P6SM SCT100 BKN250
     FM302100 11006KT P6SM SCT100 SCT250=



000
FTUS44 KEPZ 300405 AAA
TAFELP
TAF AMD
KELP 300405Z 3004/3024 07011G21KT P6SM SCT070 BKN120 BKN250
     FM300600 10010KT P6SM FEW070 SCT100 BKN250
     FM301000 13008KT P6SM SCT100 BKN250
     FM301600 17005KT P6SM SCT100 BKN250
     FM302100 11006KT P6SM SCT100 SCT250=



000
FTUS44 KEPZ 292335
TAFELP
TAF
KELP 292335Z 3000/3024 11008KT P6SM VCTS SCT070CB BKN120 BKN200
     FM300600 14007KT P6SM FEW070 SCT100 BKN250
     FM301600 17005KT P6SM SCT070 SCT100 BKN250
     FM302100 11006KT P6SM SCT100 SCT250=



000
FTUS44 KEPZ 292335
TAFDMN
TAF
KDMN 292335Z 3000/3024 08008KT P6SM VCTS SCT070CB BKN140 BKN250
     FM300600 10007KT P6SM SCT070 BKN100 BKN250
     FM301600 15008KT P6SM FEW070 SCT100 SCT250=



000
FTUS44 KEPZ 292335
TAFTCS
TAF
KTCS 292335Z 3000/3024 14011KT P6SM VCTS SCT070CB BKN120 BKN200
     FM300900 29007KT P6SM SCT070 BKN100 BKN250
     FM301700 16008KT P6SM FEW070 SCT100=



000
FTUS44 KEPZ 292335
TAFELP
TAF
KELP 292335Z 3000/3024 11008KT P6SM VCTS SCT070CB BKN120 BKN200
     FM300600 14007KT P6SM FEW070 SCT100 BKN250
     FM301600 17005KT P6SM SCT070 SCT100 BKN250
     FM302100 11006KT P6SM SCT100 SCT250=



000
FTUS44 KEPZ 292335
TAFTCS
TAF
KTCS 292335Z 3000/3024 14011KT P6SM VCTS SCT070CB BKN120 BKN200
     FM300900 29007KT P6SM SCT070 BKN100 BKN250
     FM301700 16008KT P6SM FEW070 SCT100=



000
FTUS44 KEPZ 292335
TAFDMN
TAF
KDMN 292335Z 3000/3024 08008KT P6SM VCTS SCT070CB BKN140 BKN250
     FM300600 10007KT P6SM SCT070 BKN100 BKN250
     FM301600 15008KT P6SM FEW070 SCT100 SCT250=



000
FTUS44 KEPZ 292042 AAA
TAFDMN
TAF AMD
KDMN 292042Z 2921/3018 10010G17KT P6SM SCT080 SCT120 SCT250
     FM300000 13008KT P6SM VCTS SCT070CB BKN120 BKN200
     FM300600 08008KT P6SM VCTS SCT070CB BKN140 BKN250
     FM301600 10007KT P6SM SCT070 BKN100 BKN250=



000
FTUS44 KEPZ 291743
TAFTCS
TAF
KTCS 291743Z 2918/3018 17008KT P6SM SCT080 SCT120 SCT250
     FM292100 14008KT P6SM VCTS SCT070CB BKN120 BKN200
     FM300900 29007KT P6SM SCT070 BKN100 BKN250=



000
FTUS44 KEPZ 291743
TAFELP
TAF
KELP 291743Z 2918/3018 12008KT P6SM SCT080 SCT120 SCT250
     FM292100 11008KT P6SM VCTS SCT070CB BKN120 BKN200
     FM301600 10007KT P6SM SCT070 BKN100 BKN250=



000
FTUS44 KEPZ 291743
TAFDMN
TAF
KDMN 291743Z 2918/3018 15008KT P6SM SCT080 SCT120 SCT250
     FM300000 13008KT P6SM VCTS SCT070CB BKN120 BKN200
     FM300600 08008KT P6SM VCTS SCT070CB BKN140 BKN250
     FM301600 10007KT P6SM SCT070 BKN100 BKN250=



000
FTUS44 KEPZ 291134
TAFELP
TAF
KELP 291134Z 2912/3012 15005KT P6SM SCT100 SCT200
     FM291800 10009KT P6SM SCT070 BKN250
     FM300300 13008KT P6SM SCT070 BKN200=



000
FTUS44 KEPZ 291134
TAFDMN
TAF
KDMN 291134Z 2912/3012 06005KT P6SM FEW070 SCT200
     FM291900 11009KT P6SM SCT070 BKN250
     FM300300 13007KT P6SM SCT070 BKN200=



000
FTUS44 KEPZ 291134
TAFTCS
TAF
KTCS 291134Z 2912/3012 VRB06KT P6SM SCT060 SCT100
     FM291900 17010KT P6SM VCTS SCT060CB BKN200
     FM300300 VRB05KT P6SM VCTS SCT060CB BKN200=



000
FTUS44 KEPZ 291134
TAFTCS
TAF
KTCS 291134Z 2912/3012 VRB06KT P6SM SCT060 SCT100
     FM291900 17010KT P6SM VCTS SCT060CB BKN200
     FM300300 VRB05KT P6SM VCTS SCT060CB BKN200=



000
FTUS44 KEPZ 291134
TAFELP
TAF
KELP 291134Z 2912/3012 15005KT P6SM SCT100 SCT200
     FM291800 10009KT P6SM SCT070 BKN250
     FM300300 13008KT P6SM SCT070 BKN200=



000
FTUS44 KEPZ 291134
TAFDMN
TAF
KDMN 291134Z 2912/3012 06005KT P6SM FEW070 SCT200
     FM291900 11009KT P6SM SCT070 BKN250
     FM300300 13007KT P6SM SCT070 BKN200=



000
FTUS44 KEPZ 290532
TAFTCS
TAF
KTCS 290532Z 2906/3006 VRB06KT P6SM VCSH SCT060 BKN100
     FM290900 29007KT P6SM FEW060 BKN250
     FM291900 17010KT P6SM VCTS SCT060CB BKN200=



000
FTUS44 KEPZ 290532
TAFELP
TAF
KELP 290532Z 2906/3006 15007KT P6SM SCT100 BKN200
     FM291800 10009KT P6SM SCT070 BKN250=



000
FTUS44 KEPZ 290532
TAFDMN
TAF
KDMN 290532Z 2906/3006 16007KT P6SM FEW070 BKN200
     FM291900 11009KT P6SM SCT070 BKN250=



    US Dept of Commerce
    National Oceanic and Atmospheric Administration
    National Weather Service
    1325 East West Highway
    Silver Spring, MD 20910
    Page Author: NWS Internet Services Team
Disclaimer
Information Quality
Credits
Glossary
Privacy Policy
Freedom of Information Act (FOIA)
About Us
Career Opportunities